sensor_id;sensor_type;location;lat;lon;timestamp;temperature;humidity
18611;DHT22;9435;52.122;5.502;2023-04-27T00:02:03;2.70;99.90
18611;DHT22;9435;52.122;5.502;2023-04-27T00:04:31;2.80;99.90
18611;DHT22;9435;52.122;5.502;2023-04-27T00:06:59;2.80;99.90
18611;DHT22;9435;52.122;5.502;2023-04-27T00:09:26;2.90;99.90
18611;DHT22;9435;52.122;5.502;2023-04-27T00:11:53;2.90;99.90
18611;DHT22;9435;52.122;5.502;2023-04-27T00:14:20;2.90;99.90
18611;DHT22;9435;52.122;5.502;2023-04-27T00:16:47;2.80;99.90
18611;DHT22;9435;52.122;5.502;2023-04-27T00:19:14;2.80;99.90
18611;DHT22;9435;52.122;5.502;2023-04-27T00:21:41;2.90;99.90
18611;DHT22;9435;52.122;5.502;2023-04-27T00:24:09;2.80;99.90
18611;DHT22;9435;52.122;5.502;2023-04-27T00:26:36;2.80;99.90
18611;DHT22;9435;52.122;5.502;2023-04-27T00:29:03;2.80;99.90
18611;DHT22;9435;52.122;5.502;2023-04-27T00:31:30;2.80;99.90
18611;DHT22;9435;52.122;5.502;2023-04-27T00:33:58;2.60;99.90
18611;DHT22;9435;52.122;5.502;2023-04-27T00:36:25;2.60;99.90
18611;DHT22;9435;52.122;5.502;2023-04-27T00:38:52;2.60;99.90
18611;DHT22;9435;52.122;5.502;2023-04-27T00:41:20;2.60;99.90
18611;DHT22;9435;52.122;5.502;2023-04-27T00:43:48;2.60;99.90
18611;DHT22;9435;52.122;5.502;2023-04-27T00:46:16;2.60;99.90
18611;DHT22;9435;52.122;5.502;2023-04-27T00:48:44;2.60;99.90
18611;DHT22;9435;52.122;5.502;2023-04-27T00:51:11;2.60;99.90
18611;DHT22;9435;52.122;5.502;2023-04-27T00:53:39;2.50;99.90
18611;DHT22;9435;52.122;5.502;2023-04-27T00:56:07;2.40;99.90
18611;DHT22;9435;52.122;5.502;2023-04-27T00:58:35;2.40;99.90
18611;DHT22;9435;52.122;5.502;2023-04-27T01:01:03;2.40;99.90
18611;DHT22;9435;52.122;5.502;2023-04-27T01:03:30;2.40;99.90
18611;DHT22;9435;52.122;5.502;2023-04-27T01:05:58;2.40;99.90
18611;DHT22;9435;52.122;5.502;2023-04-27T01:08:26;2.40;99.90
18611;DHT22;9435;52.122;5.502;2023-04-27T01:10:53;2.30;99.90
18611;DHT22;9435;52.122;5.502;2023-04-27T01:13:21;2.40;99.90
18611;DHT22;9435;52.122;5.502;2023-04-27T01:15:49;2.30;99.90
18611;DHT22;9435;52.122;5.502;2023-04-27T01:18:16;2.30;99.90
18611;DHT22;9435;52.122;5.502;2023-04-27T01:20:43;2.30;99.90
18611;DHT22;9435;52.122;5.502;2023-04-27T01:23:14;2.30;99.90
18611;DHT22;9435;52.122;5.502;2023-04-27T01:25:41;2.30;99.90
18611;DHT22;9435;52.122;5.502;2023-04-27T01:28:08;2.20;99.90
18611;DHT22;9435;52.122;5.502;2023-04-27T01:30:35;2.10;99.90
18611;DHT22;9435;52.122;5.502;2023-04-27T01:33:02;2.00;99.90
18611;DHT22;9435;52.122;5.502;2023-04-27T01:35:29;2.00;99.90
18611;DHT22;9435;52.122;5.502;2023-04-27T01:37:56;1.90;99.90
18611;DHT22;9435;52.122;5.502;2023-04-27T01:40:25;2.00;99.90
18611;DHT22;9435;52.122;5.502;2023-04-27T01:42:52;2.00;99.90
18611;DHT22;9435;52.122;5.502;2023-04-27T01:45:19;1.90;99.90
18611;DHT22;9435;52.122;5.502;2023-04-27T01:47:46;1.90;99.90
18611;DHT22;9435;52.122;5.502;2023-04-27T01:50:13;1.90;99.90
18611;DHT22;9435;52.122;5.502;2023-04-27T01:52:40;1.90;99.90
18611;DHT22;9435;52.122;5.502;2023-04-27T01:55:08;1.80;99.90
18611;DHT22;9435;52.122;5.502;2023-04-27T01:57:37;1.70;99.90
18611;DHT22;9435;52.122;5.502;2023-04-27T02:00:05;1.50;99.90
18611;DHT22;9435;52.122;5.502;2023-04-27T02:02:32;1.20;99.90
18611;DHT22;9435;52.122;5.502;2023-04-27T02:04:59;1.10;99.90
18611;DHT22;9435;52.122;5.502;2023-04-27T02:07:26;1.00;99.90
18611;DHT22;9435;52.122;5.502;2023-04-27T02:09:53;1.00;99.90
18611;DHT22;9435;52.122;5.502;2023-04-27T02:12:20;1.10;99.90
18611;DHT22;9435;52.122;5.502;2023-04-27T02:14:49;1.20;99.90
18611;DHT22;9435;52.122;5.502;2023-04-27T02:17:16;1.30;99.90
18611;DHT22;9435;52.122;5.502;2023-04-27T02:19:43;1.30;99.90
18611;DHT22;9435;52.122;5.502;2023-04-27T02:22:10;1.40;99.90
18611;DHT22;9435;52.122;5.502;2023-04-27T02:24:37;1.40;99.90
18611;DHT22;9435;52.122;5.502;2023-04-27T02:27:04;1.50;99.90
18611;DHT22;9435;52.122;5.502;2023-04-27T02:29:31;1.50;99.90
18611;DHT22;9435;52.122;5.502;2023-04-27T02:31:59;1.60;99.90
18611;DHT22;9435;52.122;5.502;2023-04-27T02:34:26;1.60;99.90
18611;DHT22;9435;52.122;5.502;2023-04-27T02:36:53;1.50;99.90
18611;DHT22;9435;52.122;5.502;2023-04-27T02:39:20;1.50;99.90
18611;DHT22;9435;52.122;5.502;2023-04-27T02:41:47;1.50;99.90
18611;DHT22;9435;52.122;5.502;2023-04-27T02:44:14;1.50;99.90
18611;DHT22;9435;52.122;5.502;2023-04-27T02:46:41;1.50;99.90
18611;DHT22;9435;52.122;5.502;2023-04-27T02:49:10;1.50;99.90
18611;DHT22;9435;52.122;5.502;2023-04-27T02:51:37;1.50;99.90
18611;DHT22;9435;52.122;5.502;2023-04-27T02:54:04;1.50;99.90
18611;DHT22;9435;52.122;5.502;2023-04-27T02:56:31;1.50;99.90
18611;DHT22;9435;52.122;5.502;2023-04-27T02:58:58;1.40;99.90
18611;DHT22;9435;52.122;5.502;2023-04-27T03:01:25;1.40;99.90
18611;DHT22;9435;52.122;5.502;2023-04-27T03:03:52;1.40;99.90
18611;DHT22;9435;52.122;5.502;2023-04-27T03:06:20;1.40;99.90
18611;DHT22;9435;52.122;5.502;2023-04-27T03:08:47;1.40;99.90
18611;DHT22;9435;52.122;5.502;2023-04-27T03:11:14;1.30;99.90
18611;DHT22;9435;52.122;5.502;2023-04-27T03:13:41;1.30;99.90
18611;DHT22;9435;52.122;5.502;2023-04-27T03:16:09;1.30;99.90
18611;DHT22;9435;52.122;5.502;2023-04-27T03:18:36;1.40;99.90
18611;DHT22;9435;52.122;5.502;2023-04-27T03:21:05;1.30;99.90
18611;DHT22;9435;52.122;5.502;2023-04-27T03:23:33;1.30;99.90
18611;DHT22;9435;52.122;5.502;2023-04-27T03:26:04;1.30;99.90
18611;DHT22;9435;52.122;5.502;2023-04-27T03:28:31;1.20;99.90
18611;DHT22;9435;52.122;5.502;2023-04-27T03:30:58;1.20;99.90
18611;DHT22;9435;52.122;5.502;2023-04-27T03:33:25;1.20;99.90
18611;DHT22;9435;52.122;5.502;2023-04-27T03:35:56;1.20;99.90
18611;DHT22;9435;52.122;5.502;2023-04-27T03:38:23;1.20;99.90
18611;DHT22;9435;52.122;5.502;2023-04-27T03:40:53;1.20;99.90
18611;DHT22;9435;52.122;5.502;2023-04-27T03:43:20;1.20;99.90
18611;DHT22;9435;52.122;5.502;2023-04-27T03:45:47;1.20;99.90
18611;DHT22;9435;52.122;5.502;2023-04-27T03:48:14;1.20;99.90
18611;DHT22;9435;52.122;5.502;2023-04-27T03:50:42;1.10;99.90
18611;DHT22;9435;52.122;5.502;2023-04-27T03:53:09;1.10;99.90
18611;DHT22;9435;52.122;5.502;2023-04-27T03:55:37;1.00;99.90
18611;DHT22;9435;52.122;5.502;2023-04-27T03:58:06;1.00;99.90
18611;DHT22;9435;52.122;5.502;2023-04-27T04:00:35;1.00;99.90
18611;DHT22;9435;52.122;5.502;2023-04-27T04:03:02;1.00;99.90
18611;DHT22;9435;52.122;5.502;2023-04-27T04:05:29;1.00;99.90
18611;DHT22;9435;52.122;5.502;2023-04-27T04:07:56;1.10;99.90
18611;DHT22;9435;52.122;5.502;2023-04-27T04:10:24;1.10;99.90
18611;DHT22;9435;52.122;5.502;2023-04-27T04:12:51;1.10;99.90
18611;DHT22;9435;52.122;5.502;2023-04-27T04:15:19;1.10;99.90
18611;DHT22;9435;52.122;5.502;2023-04-27T04:17:46;1.10;99.90
18611;DHT22;9435;52.122;5.502;2023-04-27T04:20:13;1.10;99.90
18611;DHT22;9435;52.122;5.502;2023-04-27T04:22:41;1.10;99.90
18611;DHT22;9435;52.122;5.502;2023-04-27T04:25:09;1.10;99.90
18611;DHT22;9435;52.122;5.502;2023-04-27T04:27:36;1.10;99.90
18611;DHT22;9435;52.122;5.502;2023-04-27T04:30:04;1.10;99.90
18611;DHT22;9435;52.122;5.502;2023-04-27T04:32:33;1.00;99.90
18611;DHT22;9435;52.122;5.502;2023-04-27T04:35:02;1.00;99.90
18611;DHT22;9435;52.122;5.502;2023-04-27T04:37:32;1.00;99.90
18611;DHT22;9435;52.122;5.502;2023-04-27T04:40:03;1.00;99.90
18611;DHT22;9435;52.122;5.502;2023-04-27T04:42:34;1.00;99.90
18611;DHT22;9435;52.122;5.502;2023-04-27T04:45:02;1.00;99.90
18611;DHT22;9435;52.122;5.502;2023-04-27T04:47:29;1.00;99.90
18611;DHT22;9435;52.122;5.502;2023-04-27T04:50:00;0.90;99.90
18611;DHT22;9435;52.122;5.502;2023-04-27T04:52:27;0.70;99.90
18611;DHT22;9435;52.122;5.502;2023-04-27T04:54:54;0.80;99.90
18611;DHT22;9435;52.122;5.502;2023-04-27T04:57:21;0.90;99.90
18611;DHT22;9435;52.122;5.502;2023-04-27T04:59:48;0.90;99.90
18611;DHT22;9435;52.122;5.502;2023-04-27T05:02:15;1.00;99.90
18611;DHT22;9435;52.122;5.502;2023-04-27T05:04:42;1.00;99.90
18611;DHT22;9435;52.122;5.502;2023-04-27T05:07:11;1.10;99.90
18611;DHT22;9435;52.122;5.502;2023-04-27T05:09:38;1.20;99.90
18611;DHT22;9435;52.122;5.502;2023-04-27T05:12:05;1.10;99.90
18611;DHT22;9435;52.122;5.502;2023-04-27T05:14:32;1.10;99.90
18611;DHT22;9435;52.122;5.502;2023-04-27T05:16:59;1.10;99.90
18611;DHT22;9435;52.122;5.502;2023-04-27T05:19:28;1.20;99.90
18611;DHT22;9435;52.122;5.502;2023-04-27T05:21:56;1.20;99.90
18611;DHT22;9435;52.122;5.502;2023-04-27T05:24:25;1.30;99.90
18611;DHT22;9435;52.122;5.502;2023-04-27T05:26:52;1.40;99.90
18611;DHT22;9435;52.122;5.502;2023-04-27T05:29:19;1.50;99.90
18611;DHT22;9435;52.122;5.502;2023-04-27T05:31:46;1.50;99.90
18611;DHT22;9435;52.122;5.502;2023-04-27T05:34:13;1.60;99.90
18611;DHT22;9435;52.122;5.502;2023-04-27T05:36:40;1.50;99.90
18611;DHT22;9435;52.122;5.502;2023-04-27T05:39:07;1.60;99.90
18611;DHT22;9435;52.122;5.502;2023-04-27T05:41:35;1.70;99.90
18611;DHT22;9435;52.122;5.502;2023-04-27T05:44:03;1.70;99.90
18611;DHT22;9435;52.122;5.502;2023-04-27T05:46:30;1.80;99.90
18611;DHT22;9435;52.122;5.502;2023-04-27T05:48:57;1.90;99.90
18611;DHT22;9435;52.122;5.502;2023-04-27T05:51:24;2.00;99.90
18611;DHT22;9435;52.122;5.502;2023-04-27T05:53:51;2.10;99.90
18611;DHT22;9435;52.122;5.502;2023-04-27T05:56:20;2.20;99.90
18611;DHT22;9435;52.122;5.502;2023-04-27T05:58:48;2.40;99.90
18611;DHT22;9435;52.122;5.502;2023-04-27T06:01:16;2.60;99.90
18611;DHT22;9435;52.122;5.502;2023-04-27T06:03:43;2.80;99.90
18611;DHT22;9435;52.122;5.502;2023-04-27T06:06:10;2.90;99.90
18611;DHT22;9435;52.122;5.502;2023-04-27T06:08:37;3.10;99.90
18611;DHT22;9435;52.122;5.502;2023-04-27T06:11:04;3.30;99.90
18611;DHT22;9435;52.122;5.502;2023-04-27T06:13:31;3.50;99.90
18611;DHT22;9435;52.122;5.502;2023-04-27T06:16:00;3.70;99.90
18611;DHT22;9435;52.122;5.502;2023-04-27T06:18:27;3.90;99.90
18611;DHT22;9435;52.122;5.502;2023-04-27T06:20:58;4.30;99.90
18611;DHT22;9435;52.122;5.502;2023-04-27T06:23:26;4.40;99.90
18611;DHT22;9435;52.122;5.502;2023-04-27T06:25:53;4.70;99.90
18611;DHT22;9435;52.122;5.502;2023-04-27T06:28:20;4.90;99.90
18611;DHT22;9435;52.122;5.502;2023-04-27T06:30:47;5.00;99.90
18611;DHT22;9435;52.122;5.502;2023-04-27T06:33:15;5.20;99.90
18611;DHT22;9435;52.122;5.502;2023-04-27T06:35:44;5.40;99.90
18611;DHT22;9435;52.122;5.502;2023-04-27T06:38:11;5.70;99.90
18611;DHT22;9435;52.122;5.502;2023-04-27T06:40:38;5.70;99.90
18611;DHT22;9435;52.122;5.502;2023-04-27T06:43:06;5.90;99.90
18611;DHT22;9435;52.122;5.502;2023-04-27T06:45:33;6.20;99.90
18611;DHT22;9435;52.122;5.502;2023-04-27T06:48:00;6.40;99.90
18611;DHT22;9435;52.122;5.502;2023-04-27T06:50:29;6.50;99.90
18611;DHT22;9435;52.122;5.502;2023-04-27T06:52:56;6.70;99.90
18611;DHT22;9435;52.122;5.502;2023-04-27T06:55:23;6.90;99.90
18611;DHT22;9435;52.122;5.502;2023-04-27T06:57:50;7.10;99.90
18611;DHT22;9435;52.122;5.502;2023-04-27T07:00:18;7.40;99.90
18611;DHT22;9435;52.122;5.502;2023-04-27T07:02:45;7.60;99.90
18611;DHT22;9435;52.122;5.502;2023-04-27T07:05:12;7.70;99.90
18611;DHT22;9435;52.122;5.502;2023-04-27T07:07:40;7.70;99.90
18611;DHT22;9435;52.122;5.502;2023-04-27T07:10:08;7.80;99.90
18611;DHT22;9435;52.122;5.502;2023-04-27T07:12:35;8.10;99.90
18611;DHT22;9435;52.122;5.502;2023-04-27T07:15:03;8.20;99.90
18611;DHT22;9435;52.122;5.502;2023-04-27T07:17:31;8.30;99.90
18611;DHT22;9435;52.122;5.502;2023-04-27T07:19:58;8.30;99.90
18611;DHT22;9435;52.122;5.502;2023-04-27T07:22:25;8.50;99.90
18611;DHT22;9435;52.122;5.502;2023-04-27T07:24:54;8.70;99.90
18611;DHT22;9435;52.122;5.502;2023-04-27T07:27:22;8.80;99.90
18611;DHT22;9435;52.122;5.502;2023-04-27T07:29:49;9.00;99.90
18611;DHT22;9435;52.122;5.502;2023-04-27T07:32:16;9.20;99.90
18611;DHT22;9435;52.122;5.502;2023-04-27T07:34:43;9.40;99.90
18611;DHT22;9435;52.122;5.502;2023-04-27T07:37:10;9.50;99.90
18611;DHT22;9435;52.122;5.502;2023-04-27T07:39:37;9.50;99.90
18611;DHT22;9435;52.122;5.502;2023-04-27T07:42:05;9.70;99.90
18611;DHT22;9435;52.122;5.502;2023-04-27T07:44:33;9.70;99.90
18611;DHT22;9435;52.122;5.502;2023-04-27T07:47:01;9.80;99.90
18611;DHT22;9435;52.122;5.502;2023-04-27T07:49:30;9.90;99.90
18611;DHT22;9435;52.122;5.502;2023-04-27T07:51:57;9.80;99.90
18611;DHT22;9435;52.122;5.502;2023-04-27T07:54:24;10.00;99.90
18611;DHT22;9435;52.122;5.502;2023-04-27T07:56:54;10.10;99.90
18611;DHT22;9435;52.122;5.502;2023-04-27T07:59:23;10.00;99.90
18611;DHT22;9435;52.122;5.502;2023-04-27T08:01:50;10.20;99.90
18611;DHT22;9435;52.122;5.502;2023-04-27T08:04:17;10.30;99.90
18611;DHT22;9435;52.122;5.502;2023-04-27T08:06:44;10.20;99.90
18611;DHT22;9435;52.122;5.502;2023-04-27T08:09:11;10.20;99.90
18611;DHT22;9435;52.122;5.502;2023-04-27T08:11:38;10.10;99.90
18611;DHT22;9435;52.122;5.502;2023-04-27T08:14:05;10.20;99.90
18611;DHT22;9435;52.122;5.502;2023-04-27T08:16:39;10.30;99.90
18611;DHT22;9435;52.122;5.502;2023-04-27T08:19:06;10.20;99.90
18611;DHT22;9435;52.122;5.502;2023-04-27T08:21:34;10.40;99.90
18611;DHT22;9435;52.122;5.502;2023-04-27T08:24:01;10.50;99.90
18611;DHT22;9435;52.122;5.502;2023-04-27T08:26:28;10.80;99.90
18611;DHT22;9435;52.122;5.502;2023-04-27T08:28:55;11.10;99.90
18611;DHT22;9435;52.122;5.502;2023-04-27T08:31:23;11.10;99.90
18611;DHT22;9435;52.122;5.502;2023-04-27T08:33:51;10.90;99.90
18611;DHT22;9435;52.122;5.502;2023-04-27T08:36:20;11.10;99.90
18611;DHT22;9435;52.122;5.502;2023-04-27T08:38:49;11.10;99.90
18611;DHT22;9435;52.122;5.502;2023-04-27T08:41:19;11.30;99.90
18611;DHT22;9435;52.122;5.502;2023-04-27T08:43:47;11.40;99.90
18611;DHT22;9435;52.122;5.502;2023-04-27T08:46:17;11.40;99.90
18611;DHT22;9435;52.122;5.502;2023-04-27T08:48:45;11.30;99.90
18611;DHT22;9435;52.122;5.502;2023-04-27T08:51:15;11.30;99.90
18611;DHT22;9435;52.122;5.502;2023-04-27T08:53:47;11.40;99.90
18611;DHT22;9435;52.122;5.502;2023-04-27T08:56:15;11.40;99.90
18611;DHT22;9435;52.122;5.502;2023-04-27T08:58:42;11.60;99.90
18611;DHT22;9435;52.122;5.502;2023-04-27T09:01:09;11.90;99.90
18611;DHT22;9435;52.122;5.502;2023-04-27T09:03:36;12.20;99.90
18611;DHT22;9435;52.122;5.502;2023-04-27T09:06:04;12.10;99.90
18611;DHT22;9435;52.122;5.502;2023-04-27T09:08:43;12.10;99.90
18611;DHT22;9435;52.122;5.502;2023-04-27T09:11:11;12.20;99.90
18611;DHT22;9435;52.122;5.502;2023-04-27T09:13:40;11.70;99.90
18611;DHT22;9435;52.122;5.502;2023-04-27T09:16:10;12.00;99.90
18611;DHT22;9435;52.122;5.502;2023-04-27T09:18:41;12.00;99.90
18611;DHT22;9435;52.122;5.502;2023-04-27T09:21:08;12.20;99.90
18611;DHT22;9435;52.122;5.502;2023-04-27T09:23:37;12.60;99.90
18611;DHT22;9435;52.122;5.502;2023-04-27T09:26:07;12.80;99.90
18611;DHT22;9435;52.122;5.502;2023-04-27T09:28:37;12.80;99.90
18611;DHT22;9435;52.122;5.502;2023-04-27T09:31:04;12.80;99.90
18611;DHT22;9435;52.122;5.502;2023-04-27T09:33:34;12.60;99.90
18611;DHT22;9435;52.122;5.502;2023-04-27T09:36:03;12.70;99.90
18611;DHT22;9435;52.122;5.502;2023-04-27T09:38:31;12.20;99.90
18611;DHT22;9435;52.122;5.502;2023-04-27T09:40:59;12.40;99.90
18611;DHT22;9435;52.122;5.502;2023-04-27T09:43:27;12.50;99.90
18611;DHT22;9435;52.122;5.502;2023-04-27T09:45:56;12.80;99.90
18611;DHT22;9435;52.122;5.502;2023-04-27T09:48:24;13.10;99.90
18611;DHT22;9435;52.122;5.502;2023-04-27T09:50:52;12.90;99.90
18611;DHT22;9435;52.122;5.502;2023-04-27T09:53:24;13.00;99.90
18611;DHT22;9435;52.122;5.502;2023-04-27T09:56:00;13.00;99.90
18611;DHT22;9435;52.122;5.502;2023-04-27T09:59:02;12.60;99.90
18611;DHT22;9435;52.122;5.502;2023-04-27T10:01:38;13.10;99.90
18611;DHT22;9435;52.122;5.502;2023-04-27T10:04:22;13.00;99.90
18611;DHT22;9435;52.122;5.502;2023-04-27T10:07:00;13.10;99.90
18611;DHT22;9435;52.122;5.502;2023-04-27T10:09:34;13.30;99.90
18611;DHT22;9435;52.122;5.502;2023-04-27T10:12:14;13.50;99.90
18611;DHT22;9435;52.122;5.502;2023-04-27T10:14:50;13.20;99.90
18611;DHT22;9435;52.122;5.502;2023-04-27T10:17:18;13.30;99.90
18611;DHT22;9435;52.122;5.502;2023-04-27T10:19:53;13.60;99.90
18611;DHT22;9435;52.122;5.502;2023-04-27T10:22:21;13.50;99.90
18611;DHT22;9435;52.122;5.502;2023-04-27T10:24:50;13.70;99.90
18611;DHT22;9435;52.122;5.502;2023-04-27T10:27:18;13.80;99.90
18611;DHT22;9435;52.122;5.502;2023-04-27T10:29:51;13.60;99.90
18611;DHT22;9435;52.122;5.502;2023-04-27T10:32:19;13.60;99.90
18611;DHT22;9435;52.122;5.502;2023-04-27T10:34:48;13.80;99.90
18611;DHT22;9435;52.122;5.502;2023-04-27T10:37:17;13.80;99.90
18611;DHT22;9435;52.122;5.502;2023-04-27T10:39:46;13.70;99.90
18611;DHT22;9435;52.122;5.502;2023-04-27T10:42:13;13.60;99.90
18611;DHT22;9435;52.122;5.502;2023-04-27T10:44:56;13.40;99.90
18611;DHT22;9435;52.122;5.502;2023-04-27T10:47:23;13.60;99.90
18611;DHT22;9435;52.122;5.502;2023-04-27T10:49:52;13.70;99.90
18611;DHT22;9435;52.122;5.502;2023-04-27T10:52:19;14.00;99.90
18611;DHT22;9435;52.122;5.502;2023-04-27T10:54:47;13.90;99.90
18611;DHT22;9435;52.122;5.502;2023-04-27T10:57:14;13.90;99.90
18611;DHT22;9435;52.122;5.502;2023-04-27T10:59:48;13.90;99.90
18611;DHT22;9435;52.122;5.502;2023-04-27T11:02:23;13.80;99.90
18611;DHT22;9435;52.122;5.502;2023-04-27T11:04:50;13.70;99.90
18611;DHT22;9435;52.122;5.502;2023-04-27T11:07:23;13.90;99.90
18611;DHT22;9435;52.122;5.502;2023-04-27T11:09:51;14.30;99.90
18611;DHT22;9435;52.122;5.502;2023-04-27T11:12:18;14.30;99.90
18611;DHT22;9435;52.122;5.502;2023-04-27T11:14:45;14.50;99.90
18611;DHT22;9435;52.122;5.502;2023-04-27T11:17:12;14.30;99.90
18611;DHT22;9435;52.122;5.502;2023-04-27T11:19:47;14.70;99.90
18611;DHT22;9435;52.122;5.502;2023-04-27T11:22:15;14.80;99.90
18611;DHT22;9435;52.122;5.502;2023-04-27T11:24:49;14.80;99.90
18611;DHT22;9435;52.122;5.502;2023-04-27T11:27:17;15.10;99.90
18611;DHT22;9435;52.122;5.502;2023-04-27T11:29:44;14.90;99.90
18611;DHT22;9435;52.122;5.502;2023-04-27T11:32:18;14.60;99.90
18611;DHT22;9435;52.122;5.502;2023-04-27T11:34:50;14.40;99.90
18611;DHT22;9435;52.122;5.502;2023-04-27T11:37:21;14.30;99.90
18611;DHT22;9435;52.122;5.502;2023-04-27T11:39:50;14.40;99.90
18611;DHT22;9435;52.122;5.502;2023-04-27T11:42:20;14.20;99.90
18611;DHT22;9435;52.122;5.502;2023-04-27T11:44:54;14.60;99.90
18611;DHT22;9435;52.122;5.502;2023-04-27T11:47:23;15.10;99.90
18611;DHT22;9435;52.122;5.502;2023-04-27T11:49:54;15.00;99.90
18611;DHT22;9435;52.122;5.502;2023-04-27T11:52:22;14.70;99.90
18611;DHT22;9435;52.122;5.502;2023-04-27T11:54:53;14.70;99.90
18611;DHT22;9435;52.122;5.502;2023-04-27T11:57:23;14.60;99.90
18611;DHT22;9435;52.122;5.502;2023-04-27T11:59:52;14.50;99.90
18611;DHT22;9435;52.122;5.502;2023-04-27T12:02:19;14.70;99.90
18611;DHT22;9435;52.122;5.502;2023-04-27T12:04:47;14.90;99.90
18611;DHT22;9435;52.122;5.502;2023-04-27T12:07:16;15.20;99.90
18611;DHT22;9435;52.122;5.502;2023-04-27T12:09:43;15.20;99.90
18611;DHT22;9435;52.122;5.502;2023-04-27T12:12:11;15.30;99.90
18611;DHT22;9435;52.122;5.502;2023-04-27T12:14:38;15.20;99.90
18611;DHT22;9435;52.122;5.502;2023-04-27T12:17:06;15.50;99.90
18611;DHT22;9435;52.122;5.502;2023-04-27T12:19:33;15.50;99.90
18611;DHT22;9435;52.122;5.502;2023-04-27T12:22:02;15.10;99.90
18611;DHT22;9435;52.122;5.502;2023-04-27T12:24:30;15.20;99.90
18611;DHT22;9435;52.122;5.502;2023-04-27T12:26:58;14.70;99.90
18611;DHT22;9435;52.122;5.502;2023-04-27T12:29:26;14.90;99.90
18611;DHT22;9435;52.122;5.502;2023-04-27T12:31:53;15.10;99.90
18611;DHT22;9435;52.122;5.502;2023-04-27T12:34:20;15.20;99.90
18611;DHT22;9435;52.122;5.502;2023-04-27T12:36:47;15.10;99.90
18611;DHT22;9435;52.122;5.502;2023-04-27T12:39:15;15.30;99.90
18611;DHT22;9435;52.122;5.502;2023-04-27T12:41:45;15.40;99.90
18611;DHT22;9435;52.122;5.502;2023-04-27T12:44:12;15.10;99.90
18611;DHT22;9435;52.122;5.502;2023-04-27T12:46:40;15.60;99.90
18611;DHT22;9435;52.122;5.502;2023-04-27T12:49:08;15.70;99.90
18611;DHT22;9435;52.122;5.502;2023-04-27T12:51:36;16.00;99.90
18611;DHT22;9435;52.122;5.502;2023-04-27T12:54:04;16.10;99.90
18611;DHT22;9435;52.122;5.502;2023-04-27T12:56:31;16.30;99.90
18611;DHT22;9435;52.122;5.502;2023-04-27T12:59:00;16.00;99.90
18611;DHT22;9435;52.122;5.502;2023-04-27T13:01:27;16.10;99.90
18611;DHT22;9435;52.122;5.502;2023-04-27T13:03:58;15.80;99.90
18611;DHT22;9435;52.122;5.502;2023-04-27T13:06:26;15.80;99.90
18611;DHT22;9435;52.122;5.502;2023-04-27T13:08:54;16.00;99.90
18611;DHT22;9435;52.122;5.502;2023-04-27T13:11:21;16.20;99.90
18611;DHT22;9435;52.122;5.502;2023-04-27T13:13:48;16.10;99.90
18611;DHT22;9435;52.122;5.502;2023-04-27T13:16:17;15.80;99.90
18611;DHT22;9435;52.122;5.502;2023-04-27T13:18:46;15.80;99.90
18611;DHT22;9435;52.122;5.502;2023-04-27T13:21:16;15.40;99.90
18611;DHT22;9435;52.122;5.502;2023-04-27T13:23:43;15.60;99.90
18611;DHT22;9435;52.122;5.502;2023-04-27T13:26:10;15.70;99.90
18611;DHT22;9435;52.122;5.502;2023-04-27T13:28:37;15.50;99.90
18611;DHT22;9435;52.122;5.502;2023-04-27T13:31:04;14.60;99.90
18611;DHT22;9435;52.122;5.502;2023-04-27T13:33:38;14.90;99.90
18611;DHT22;9435;52.122;5.502;2023-04-27T13:36:06;15.00;99.90
18611;DHT22;9435;52.122;5.502;2023-04-27T13:38:33;15.20;99.90
18611;DHT22;9435;52.122;5.502;2023-04-27T13:41:00;15.40;99.90
18611;DHT22;9435;52.122;5.502;2023-04-27T13:43:28;15.60;99.90
18611;DHT22;9435;52.122;5.502;2023-04-27T13:45:56;15.50;99.90
18611;DHT22;9435;52.122;5.502;2023-04-27T13:48:23;15.60;99.90
18611;DHT22;9435;52.122;5.502;2023-04-27T13:50:52;15.70;99.90
18611;DHT22;9435;52.122;5.502;2023-04-27T13:53:19;15.60;99.90
18611;DHT22;9435;52.122;5.502;2023-04-27T13:55:50;15.40;99.90
18611;DHT22;9435;52.122;5.502;2023-04-27T13:58:17;14.80;99.90
18611;DHT22;9435;52.122;5.502;2023-04-27T14:00:44;15.00;99.90
18611;DHT22;9435;52.122;5.502;2023-04-27T14:03:13;14.20;99.90
18611;DHT22;9435;52.122;5.502;2023-04-27T14:05:41;14.40;99.90
18611;DHT22;9435;52.122;5.502;2023-04-27T14:08:09;14.60;99.90
18611;DHT22;9435;52.122;5.502;2023-04-27T14:10:37;14.20;99.90
18611;DHT22;9435;52.122;5.502;2023-04-27T14:13:04;14.20;99.90
18611;DHT22;9435;52.122;5.502;2023-04-27T14:15:31;14.00;99.90
18611;DHT22;9435;52.122;5.502;2023-04-27T14:18:02;14.10;99.90
18611;DHT22;9435;52.122;5.502;2023-04-27T14:20:30;14.30;99.90
18611;DHT22;9435;52.122;5.502;2023-04-27T14:22:58;14.60;99.90
18611;DHT22;9435;52.122;5.502;2023-04-27T14:25:26;14.50;99.90
18611;DHT22;9435;52.122;5.502;2023-04-27T14:27:57;14.20;99.90
18611;DHT22;9435;52.122;5.502;2023-04-27T14:30:25;14.10;99.90
18611;DHT22;9435;52.122;5.502;2023-04-27T14:32:52;13.90;99.90
18611;DHT22;9435;52.122;5.502;2023-04-27T14:35:19;14.30;99.90
18611;DHT22;9435;52.122;5.502;2023-04-27T14:37:48;14.10;99.90
18611;DHT22;9435;52.122;5.502;2023-04-27T14:40:16;14.50;99.90
18611;DHT22;9435;52.122;5.502;2023-04-27T14:42:44;14.50;99.90
18611;DHT22;9435;52.122;5.502;2023-04-27T14:45:11;14.50;99.90
18611;DHT22;9435;52.122;5.502;2023-04-27T14:47:40;14.60;99.90
18611;DHT22;9435;52.122;5.502;2023-04-27T14:50:07;14.60;99.90
18611;DHT22;9435;52.122;5.502;2023-04-27T14:52:36;14.80;99.90
18611;DHT22;9435;52.122;5.502;2023-04-27T14:55:03;14.70;99.90
18611;DHT22;9435;52.122;5.502;2023-04-27T14:57:31;14.30;99.90
18611;DHT22;9435;52.122;5.502;2023-04-27T14:59:59;13.80;99.90
18611;DHT22;9435;52.122;5.502;2023-04-27T15:02:26;13.80;99.90
18611;DHT22;9435;52.122;5.502;2023-04-27T15:04:53;13.70;99.90
18611;DHT22;9435;52.122;5.502;2023-04-27T15:07:20;13.70;99.90
18611;DHT22;9435;52.122;5.502;2023-04-27T15:09:47;13.70;99.90
18611;DHT22;9435;52.122;5.502;2023-04-27T15:12:15;13.80;99.90
18611;DHT22;9435;52.122;5.502;2023-04-27T15:14:42;14.00;99.90
18611;DHT22;9435;52.122;5.502;2023-04-27T15:17:11;14.10;99.90
18611;DHT22;9435;52.122;5.502;2023-04-27T15:19:38;14.30;99.90
18611;DHT22;9435;52.122;5.502;2023-04-27T15:22:05;14.30;99.90
18611;DHT22;9435;52.122;5.502;2023-04-27T15:24:33;14.00;99.90
18611;DHT22;9435;52.122;5.502;2023-04-27T15:27:03;14.10;99.90
18611;DHT22;9435;52.122;5.502;2023-04-27T15:29:30;14.00;99.90
18611;DHT22;9435;52.122;5.502;2023-04-27T15:31:57;14.30;99.90
18611;DHT22;9435;52.122;5.502;2023-04-27T15:34:26;14.30;99.90
18611;DHT22;9435;52.122;5.502;2023-04-27T15:36:53;14.30;99.90
18611;DHT22;9435;52.122;5.502;2023-04-27T15:39:20;13.80;99.90
18611;DHT22;9435;52.122;5.502;2023-04-27T15:41:47;13.50;99.90
18611;DHT22;9435;52.122;5.502;2023-04-27T15:44:14;13.50;99.90
18611;DHT22;9435;52.122;5.502;2023-04-27T15:46:41;13.40;99.90
18611;DHT22;9435;52.122;5.502;2023-04-27T15:49:08;13.30;99.90
18611;DHT22;9435;52.122;5.502;2023-04-27T15:51:38;13.30;99.90
18611;DHT22;9435;52.122;5.502;2023-04-27T15:54:05;13.20;99.90
18611;DHT22;9435;52.122;5.502;2023-04-27T15:56:32;13.10;99.90
18611;DHT22;9435;52.122;5.502;2023-04-27T15:58:59;13.10;99.90
18611;DHT22;9435;52.122;5.502;2023-04-27T16:01:26;13.10;99.90